sensor_id;sensor_type;location;lat;lon;timestamp;temperature;humidity
4435;DHT22;46552;52.150;8.428;2023-05-16T00:02:06;12.90;99.90
4435;DHT22;46552;52.150;8.428;2023-05-16T00:04:35;13.00;99.90
4435;DHT22;46552;52.150;8.428;2023-05-16T00:07:02;12.90;99.90
4435;DHT22;46552;52.150;8.428;2023-05-16T00:11:58;13.00;99.90
4435;DHT22;46552;52.150;8.428;2023-05-16T00:24:18;12.90;99.90
4435;DHT22;46552;52.150;8.428;2023-05-16T00:29:16;12.90;99.90
4435;DHT22;46552;52.150;8.428;2023-05-16T00:31:43;13.00;99.90
4435;DHT22;46552;52.150;8.428;2023-05-16T00:36:38;13.00;99.90
4435;DHT22;46552;52.150;8.428;2023-05-16T00:39:06;12.80;99.90
4435;DHT22;46552;52.150;8.428;2023-05-16T00:41:34;13.00;99.90
4435;DHT22;46552;52.150;8.428;2023-05-16T00:46:32;13.00;99.90
4435;DHT22;46552;52.150;8.428;2023-05-16T01:01:22;12.90;99.90
4435;DHT22;46552;52.150;8.428;2023-05-16T01:03:52;12.80;99.90
4435;DHT22;46552;52.150;8.428;2023-05-16T01:06:20;13.00;99.90
4435;DHT22;46552;52.150;8.428;2023-05-16T01:11:20;12.70;99.90
4435;DHT22;46552;52.150;8.428;2023-05-16T01:13:57;12.80;99.90
4435;DHT22;46552;52.150;8.428;2023-05-16T01:16:30;12.80;99.90
4435;DHT22;46552;52.150;8.428;2023-05-16T01:19:09;12.70;99.90
4435;DHT22;46552;52.150;8.428;2023-05-16T01:21:47;12.70;99.90
4435;DHT22;46552;52.150;8.428;2023-05-16T01:24:22;12.70;99.90
4435;DHT22;46552;52.150;8.428;2023-05-16T01:26:52;12.60;99.90
4435;DHT22;46552;52.150;8.428;2023-05-16T01:29:20;12.40;99.90
4435;DHT22;46552;52.150;8.428;2023-05-16T01:34:14;12.40;99.90
4435;DHT22;46552;52.150;8.428;2023-05-16T01:36:51;12.30;99.90
4435;DHT22;46552;52.150;8.428;2023-05-16T01:39:31;12.30;99.90
4435;DHT22;46552;52.150;8.428;2023-05-16T01:42:06;12.20;99.90
4435;DHT22;46552;52.150;8.428;2023-05-16T01:44:39;12.20;99.90
4435;DHT22;46552;52.150;8.428;2023-05-16T01:47:10;12.10;99.90
4435;DHT22;46552;52.150;8.428;2023-05-16T01:49:42;12.10;99.90
4435;DHT22;46552;52.150;8.428;2023-05-16T01:52:17;12.10;99.90
4435;DHT22;46552;52.150;8.428;2023-05-16T01:54:47;12.00;99.90
4435;DHT22;46552;52.150;8.428;2023-05-16T01:57:24;11.90;99.90
4435;DHT22;46552;52.150;8.428;2023-05-16T01:59:52;11.90;99.90
4435;DHT22;46552;52.150;8.428;2023-05-16T02:04:47;11.90;99.90
4435;DHT22;46552;52.150;8.428;2023-05-16T02:14:38;11.80;99.90
4435;DHT22;46552;52.150;8.428;2023-05-16T02:29:22;11.90;99.90
4435;DHT22;46552;52.150;8.428;2023-05-16T02:31:50;11.80;99.90
4435;DHT22;46552;52.150;8.428;2023-05-16T02:34:17;11.70;99.90
4435;DHT22;46552;52.150;8.428;2023-05-16T02:49:03;11.50;99.90
4435;DHT22;46552;52.150;8.428;2023-05-16T02:53:58;11.40;99.90
4435;DHT22;46552;52.150;8.428;2023-05-16T03:03:48;11.30;99.90
4435;DHT22;46552;52.150;8.428;2023-05-16T03:06:17;11.50;99.90
4435;DHT22;46552;52.150;8.428;2023-05-16T03:23:35;11.40;99.90
4435;DHT22;46552;52.150;8.428;2023-05-16T03:38:21;11.30;99.90
4435;DHT22;46552;52.150;8.428;2023-05-16T03:40:50;11.30;99.90
4435;DHT22;46552;52.150;8.428;2023-05-16T03:55:36;10.90;99.90
4435;DHT22;46552;52.150;8.428;2023-05-16T03:58:05;10.80;99.90
4435;DHT22;46552;52.150;8.428;2023-05-16T04:10:23;10.70;99.90
4435;DHT22;46552;52.150;8.428;2023-05-16T04:15:19;10.70;99.90
4435;DHT22;46552;52.150;8.428;2023-05-16T04:25:09;10.70;99.90
4435;DHT22;46552;52.150;8.428;2023-05-16T04:30:05;10.60;99.90
4435;DHT22;46552;52.150;8.428;2023-05-16T04:32:34;10.60;99.90
4435;DHT22;46552;52.150;8.428;2023-05-16T04:49:47;10.70;99.90
4435;DHT22;46552;52.150;8.428;2023-05-16T05:07:00;10.80;99.90
4435;DHT22;46552;52.150;8.428;2023-05-16T05:24:13;10.80;99.90
4435;DHT22;46552;52.150;8.428;2023-05-16T05:41:28;10.90;99.90
4435;DHT22;46552;52.150;8.428;2023-05-16T05:46:23;11.00;99.90
4435;DHT22;46552;52.150;8.428;2023-05-16T05:58:43;11.40;99.90
4435;DHT22;46552;52.150;8.428;2023-05-16T06:06:05;11.70;99.90
4435;DHT22;46552;52.150;8.428;2023-05-16T06:15:57;11.90;99.90
4435;DHT22;46552;52.150;8.428;2023-05-16T06:33:13;12.40;99.90
4435;DHT22;46552;52.150;8.428;2023-05-16T06:50:28;12.50;99.90
4435;DHT22;46552;52.150;8.428;2023-05-16T07:00:19;12.30;99.90
4435;DHT22;46552;52.150;8.428;2023-05-16T07:07:43;12.80;99.90
4435;DHT22;46552;52.150;8.428;2023-05-16T07:10:10;12.80;99.90
4435;DHT22;46552;52.150;8.428;2023-05-16T07:12:40;13.00;99.90
4435;DHT22;46552;52.150;8.428;2023-05-16T07:15:08;13.10;99.90
4435;DHT22;46552;52.150;8.428;2023-05-16T07:20:03;13.30;99.90
4435;DHT22;46552;52.150;8.428;2023-05-16T07:25:00;13.40;99.90
4435;DHT22;46552;52.150;8.428;2023-05-16T07:42:14;13.40;99.90
4435;DHT22;46552;52.150;8.428;2023-05-16T07:44:42;13.50;99.90
4435;DHT22;46552;52.150;8.428;2023-05-16T07:52:05;14.10;99.90
4435;DHT22;46552;52.150;8.428;2023-05-16T07:54:34;14.20;99.60
4435;DHT22;46552;52.150;8.428;2023-05-16T07:59:31;14.40;99.30
4435;DHT22;46552;52.150;8.428;2023-05-16T08:09:20;14.60;98.50
4435;DHT22;46552;52.150;8.428;2023-05-16T08:16:45;15.10;98.30
4435;DHT22;46552;52.150;8.428;2023-05-16T08:24:07;14.90;97.60
4435;DHT22;46552;52.150;8.428;2023-05-16T08:29:03;14.90;97.10
4435;DHT22;46552;52.150;8.428;2023-05-16T08:34:00;15.20;96.10
4435;DHT22;46552;52.150;8.428;2023-05-16T08:36:30;15.40;97.30
4435;DHT22;46552;52.150;8.428;2023-05-16T08:41:26;15.50;97.70
4435;DHT22;46552;52.150;8.428;2023-05-16T08:46:22;15.10;95.70
4435;DHT22;46552;52.150;8.428;2023-05-16T08:48:51;14.90;95.70
4435;DHT22;46552;52.150;8.428;2023-05-16T08:51:20;14.90;95.70
4435;DHT22;46552;52.150;8.428;2023-05-16T08:53:56;15.00;95.70
4435;DHT22;46552;52.150;8.428;2023-05-16T08:56:25;15.00;95.50
4435;DHT22;46552;52.150;8.428;2023-05-16T08:58:54;15.00;95.60
4435;DHT22;46552;52.150;8.428;2023-05-16T09:06:20;15.60;95.20
4435;DHT22;46552;52.150;8.428;2023-05-16T09:08:47;16.00;96.60
4435;DHT22;46552;52.150;8.428;2023-05-16T09:11:18;15.80;94.30
4435;DHT22;46552;52.150;8.428;2023-05-16T09:13:46;15.60;95.90
4435;DHT22;46552;52.150;8.428;2023-05-16T09:16:15;15.60;94.50
4435;DHT22;46552;52.150;8.428;2023-05-16T09:18:44;15.70;94.60
4435;DHT22;46552;52.150;8.428;2023-05-16T09:21:12;15.90;94.40
4435;DHT22;46552;52.150;8.428;2023-05-16T09:23:43;16.10;94.10
4435;DHT22;46552;52.150;8.428;2023-05-16T09:28:39;16.40;95.70
4435;DHT22;46552;52.150;8.428;2023-05-16T09:31:19;16.50;93.00
4435;DHT22;46552;52.150;8.428;2023-05-16T09:36:15;16.60;92.40
4435;DHT22;46552;52.150;8.428;2023-05-16T09:38:44;16.60;92.40
4435;DHT22;46552;52.150;8.428;2023-05-16T09:43:39;16.90;92.70
4435;DHT22;46552;52.150;8.428;2023-05-16T09:48:35;17.50;93.50
4435;DHT22;46552;52.150;8.428;2023-05-16T09:51:04;17.60;91.30
4435;DHT22;46552;52.150;8.428;2023-05-16T09:53:32;17.50;92.60
4435;DHT22;46552;52.150;8.428;2023-05-16T09:56:04;18.10;90.80
4435;DHT22;46552;52.150;8.428;2023-05-16T10:01:01;18.00;91.20
4435;DHT22;46552;52.150;8.428;2023-05-16T10:05:56;17.80;91.00
4435;DHT22;46552;52.150;8.428;2023-05-16T10:08:25;17.70;91.10
4435;DHT22;46552;52.150;8.428;2023-05-16T10:10:54;17.90;88.80
4435;DHT22;46552;52.150;8.428;2023-05-16T10:13:24;18.00;88.10
4435;DHT22;46552;52.150;8.428;2023-05-16T10:15:55;18.10;88.00
4435;DHT22;46552;52.150;8.428;2023-05-16T10:18:28;18.20;90.30
4435;DHT22;46552;52.150;8.428;2023-05-16T10:21:04;18.00;90.00
4435;DHT22;46552;52.150;8.428;2023-05-16T10:23:32;17.90;86.60
4435;DHT22;46552;52.150;8.428;2023-05-16T10:26:02;18.00;85.80
4435;DHT22;46552;52.150;8.428;2023-05-16T10:28:32;18.00;86.00
4435;DHT22;46552;52.150;8.428;2023-05-16T10:31:00;18.00;85.20
4435;DHT22;46552;52.150;8.428;2023-05-16T10:38:24;17.70;85.10
4435;DHT22;46552;52.150;8.428;2023-05-16T10:43:23;17.80;86.30
4435;DHT22;46552;52.150;8.428;2023-05-16T10:45:55;17.70;84.60
4435;DHT22;46552;52.150;8.428;2023-05-16T10:48:29;17.60;84.10
4435;DHT22;46552;52.150;8.428;2023-05-16T10:50:57;17.80;88.20
4435;DHT22;46552;52.150;8.428;2023-05-16T10:53:30;17.60;84.30
4435;DHT22;46552;52.150;8.428;2023-05-16T10:56:08;17.80;89.30
4435;DHT22;46552;52.150;8.428;2023-05-16T10:58:43;17.50;84.50
4435;DHT22;46552;52.150;8.428;2023-05-16T11:01:16;17.30;84.80
4435;DHT22;46552;52.150;8.428;2023-05-16T11:04:04;17.40;85.80
4435;DHT22;46552;52.150;8.428;2023-05-16T11:06:32;17.40;85.60
4435;DHT22;46552;52.150;8.428;2023-05-16T11:09:16;17.80;88.40
4435;DHT22;46552;52.150;8.428;2023-05-16T11:11:45;18.00;85.20
4435;DHT22;46552;52.150;8.428;2023-05-16T11:14:19;18.20;84.20
4435;DHT22;46552;52.150;8.428;2023-05-16T11:16:50;18.60;82.60
4435;DHT22;46552;52.150;8.428;2023-05-16T11:19:32;19.00;85.90
4435;DHT22;46552;52.150;8.428;2023-05-16T11:22:22;19.40;84.00
4435;DHT22;46552;52.150;8.428;2023-05-16T11:24:55;19.50;79.80
4435;DHT22;46552;52.150;8.428;2023-05-16T11:27:25;19.70;78.70
4435;DHT22;46552;52.150;8.428;2023-05-16T11:29:54;20.00;78.50
4435;DHT22;46552;52.150;8.428;2023-05-16T11:32:23;20.00;81.50
4435;DHT22;46552;52.150;8.428;2023-05-16T11:34:51;19.80;79.00
4435;DHT22;46552;52.150;8.428;2023-05-16T12:00:46;18.00;75.10
4435;DHT22;46552;52.150;8.428;2023-05-16T12:03:14;18.10;76.30
4435;DHT22;46552;52.150;8.428;2023-05-16T12:05:49;18.30;75.20
4435;DHT22;46552;52.150;8.428;2023-05-16T12:08:17;18.40;72.90
4435;DHT22;46552;52.150;8.428;2023-05-16T12:10:45;18.30;72.50
4435;DHT22;46552;52.150;8.428;2023-05-16T12:13:13;18.30;73.20
4435;DHT22;46552;52.150;8.428;2023-05-16T12:15:41;18.20;70.30
4435;DHT22;46552;52.150;8.428;2023-05-16T12:18:09;17.90;71.10
4435;DHT22;46552;52.150;8.428;2023-05-16T12:20:36;17.90;72.40
4435;DHT22;46552;52.150;8.428;2023-05-16T12:23:05;17.80;72.10
4435;DHT22;46552;52.150;8.428;2023-05-16T12:25:36;17.70;72.00
4435;DHT22;46552;52.150;8.428;2023-05-16T12:28:06;17.70;72.30
4435;DHT22;46552;52.150;8.428;2023-05-16T12:30:34;17.90;72.70
4435;DHT22;46552;52.150;8.428;2023-05-16T12:33:08;18.10;72.10
4435;DHT22;46552;52.150;8.428;2023-05-16T12:35:37;18.30;71.80
4435;DHT22;46552;52.150;8.428;2023-05-16T12:38:05;18.60;71.80
4435;DHT22;46552;52.150;8.428;2023-05-16T12:40:33;18.80;70.40
4435;DHT22;46552;52.150;8.428;2023-05-16T12:43:02;19.00;70.50
4435;DHT22;46552;52.150;8.428;2023-05-16T12:45:29;19.10;69.20
4435;DHT22;46552;52.150;8.428;2023-05-16T12:47:56;19.10;68.40
4435;DHT22;46552;52.150;8.428;2023-05-16T12:50:25;19.20;65.40
4435;DHT22;46552;52.150;8.428;2023-05-16T12:52:57;19.30;66.30
4435;DHT22;46552;52.150;8.428;2023-05-16T12:55:25;19.40;64.40
4435;DHT22;46552;52.150;8.428;2023-05-16T12:57:53;19.50;65.10
4435;DHT22;46552;52.150;8.428;2023-05-16T13:00:21;19.50;65.20
4435;DHT22;46552;52.150;8.428;2023-05-16T13:02:48;19.70;66.10
4435;DHT22;46552;52.150;8.428;2023-05-16T13:05:16;19.70;67.10
4435;DHT22;46552;52.150;8.428;2023-05-16T13:07:46;19.70;67.50
4435;DHT22;46552;52.150;8.428;2023-05-16T13:10:16;19.70;67.50
4435;DHT22;46552;52.150;8.428;2023-05-16T13:12:44;19.70;68.00
4435;DHT22;46552;52.150;8.428;2023-05-16T13:15:12;19.60;68.40
4435;DHT22;46552;52.150;8.428;2023-05-16T13:21:02;19.30;67.40
4435;DHT22;46552;52.150;8.428;2023-05-16T13:23:31;19.20;67.90
4435;DHT22;46552;52.150;8.428;2023-05-16T13:25:58;19.00;68.20
4435;DHT22;46552;52.150;8.428;2023-05-16T13:28:25;18.80;68.90
4435;DHT22;46552;52.150;8.428;2023-05-16T13:30:54;18.70;69.40
4435;DHT22;46552;52.150;8.428;2023-05-16T13:33:21;18.60;69.60
4435;DHT22;46552;52.150;8.428;2023-05-16T13:35:49;18.50;69.90
4435;DHT22;46552;52.150;8.428;2023-05-16T13:38:18;18.40;70.00
4435;DHT22;46552;52.150;8.428;2023-05-16T13:40:47;18.40;71.00
4435;DHT22;46552;52.150;8.428;2023-05-16T13:43:14;18.30;70.90
4435;DHT22;46552;52.150;8.428;2023-05-16T13:45:41;18.20;71.20
4435;DHT22;46552;52.150;8.428;2023-05-16T13:48:09;18.20;71.10
4435;DHT22;46552;52.150;8.428;2023-05-16T13:50:37;18.20;71.70
4435;DHT22;46552;52.150;8.428;2023-05-16T13:53:04;18.10;72.10
4435;DHT22;46552;52.150;8.428;2023-05-16T13:58:57;18.20;72.40
4435;DHT22;46552;52.150;8.428;2023-05-16T14:01:24;18.20;71.90
4435;DHT22;46552;52.150;8.428;2023-05-16T14:03:51;18.30;71.10
4435;DHT22;46552;52.150;8.428;2023-05-16T14:06:19;18.20;71.20
4435;DHT22;46552;52.150;8.428;2023-05-16T14:08:46;18.20;71.80
4435;DHT22;46552;52.150;8.428;2023-05-16T14:11:14;18.20;72.10
4435;DHT22;46552;52.150;8.428;2023-05-16T14:13:44;18.10;72.50
4435;DHT22;46552;52.150;8.428;2023-05-16T14:16:13;17.60;72.50
4435;DHT22;46552;52.150;8.428;2023-05-16T14:18:40;17.70;73.20
4435;DHT22;46552;52.150;8.428;2023-05-16T14:21:07;17.40;73.60
4435;DHT22;46552;52.150;8.428;2023-05-16T14:23:34;17.20;74.20
4435;DHT22;46552;52.150;8.428;2023-05-16T14:26:01;16.90;74.80
4435;DHT22;46552;52.150;8.428;2023-05-16T14:28:29;16.80;75.00
4435;DHT22;46552;52.150;8.428;2023-05-16T14:30:57;16.80;75.40
4435;DHT22;46552;52.150;8.428;2023-05-16T14:33:26;17.00;75.10
4435;DHT22;46552;52.150;8.428;2023-05-16T14:35:53;17.10;74.90
4435;DHT22;46552;52.150;8.428;2023-05-16T14:38:21;17.20;74.60
4435;DHT22;46552;52.150;8.428;2023-05-16T14:40:48;17.40;74.80
4435;DHT22;46552;52.150;8.428;2023-05-16T14:43:15;17.70;73.60
4435;DHT22;46552;52.150;8.428;2023-05-16T14:45:42;17.70;74.00
4435;DHT22;46552;52.150;8.428;2023-05-16T14:48:10;17.90;72.20
4435;DHT22;46552;52.150;8.428;2023-05-16T14:50:38;17.90;72.80
4435;DHT22;46552;52.150;8.428;2023-05-16T14:53:06;18.00;72.20
4435;DHT22;46552;52.150;8.428;2023-05-16T14:55:33;18.00;71.50
4435;DHT22;46552;52.150;8.428;2023-05-16T14:58:00;17.70;70.80
4435;DHT22;46552;52.150;8.428;2023-05-16T15:00:28;17.80;71.70
4435;DHT22;46552;52.150;8.428;2023-05-16T15:02:56;17.70;71.70
4435;DHT22;46552;52.150;8.428;2023-05-16T15:05:23;17.70;71.60
4435;DHT22;46552;52.150;8.428;2023-05-16T15:07:52;17.80;71.90
4435;DHT22;46552;52.150;8.428;2023-05-16T15:10:20;17.70;71.40
4435;DHT22;46552;52.150;8.428;2023-05-16T15:12:47;17.70;71.30
4435;DHT22;46552;52.150;8.428;2023-05-16T15:15:14;17.70;71.50
4435;DHT22;46552;52.150;8.428;2023-05-16T15:17:41;17.70;71.50
4435;DHT22;46552;52.150;8.428;2023-05-16T15:20:10;17.60;71.10
4435;DHT22;46552;52.150;8.428;2023-05-16T15:22:38;17.50;71.40
4435;DHT22;46552;52.150;8.428;2023-05-16T15:25:07;17.60;71.70
4435;DHT22;46552;52.150;8.428;2023-05-16T15:27:34;17.70;71.40
4435;DHT22;46552;52.150;8.428;2023-05-16T15:30:02;17.70;71.20
4435;DHT22;46552;52.150;8.428;2023-05-16T15:32:29;17.80;70.90
4435;DHT22;46552;52.150;8.428;2023-05-16T15:34:56;17.80;70.70
4435;DHT22;46552;52.150;8.428;2023-05-16T15:37:23;17.80;70.40
4435;DHT22;46552;52.150;8.428;2023-05-16T15:39:51;17.60;70.00
4435;DHT22;46552;52.150;8.428;2023-05-16T15:42:19;17.40;70.30
4435;DHT22;46552;52.150;8.428;2023-05-16T15:47:14;17.30;70.80
4435;DHT22;46552;52.150;8.428;2023-05-16T15:49:42;17.30;71.30
4435;DHT22;46552;52.150;8.428;2023-05-16T15:52:09;17.10;71.70
4435;DHT22;46552;52.150;8.428;2023-05-16T15:54:36;17.20;72.10
4435;DHT22;46552;52.150;8.428;2023-05-16T15:59:32;17.20;72.30
4435;DHT22;46552;52.150;8.428;2023-05-16T16:01:59;17.30;72.90
4435;DHT22;46552;52.150;8.428;2023-05-16T16:04:29;17.30;72.90
4435;DHT22;46552;52.150;8.428;2023-05-16T16:06:57;17.30;72.80
4435;DHT22;46552;52.150;8.428;2023-05-16T16:09:24;17.20;72.80
4435;DHT22;46552;52.150;8.428;2023-05-16T16:11:51;17.10;72.90
4435;DHT22;46552;52.150;8.428;2023-05-16T16:14:21;16.90;72.10
4435;DHT22;46552;52.150;8.428;2023-05-16T16:16:49;16.90;72.80
4435;DHT22;46552;52.150;8.428;2023-05-16T16:19:17;16.80;72.40
4435;DHT22;46552;52.150;8.428;2023-05-16T16:21:44;16.80;72.40
4435;DHT22;46552;52.150;8.428;2023-05-16T16:24:11;16.70;72.60
4435;DHT22;46552;52.150;8.428;2023-05-16T16:26:41;16.70;72.50
4435;DHT22;46552;52.150;8.428;2023-05-16T16:29:08;16.60;72.00
4435;DHT22;46552;52.150;8.428;2023-05-16T16:31:35;16.60;72.70
4435;DHT22;46552;52.150;8.428;2023-05-16T16:34:04;16.60;73.20
4435;DHT22;46552;52.150;8.428;2023-05-16T16:36:31;16.50;73.50
4435;DHT22;46552;52.150;8.428;2023-05-16T16:38:58;16.50;73.70
4435;DHT22;46552;52.150;8.428;2023-05-16T16:41:26;16.50;73.80
4435;DHT22;46552;52.150;8.428;2023-05-16T16:43:53;16.50;74.10
4435;DHT22;46552;52.150;8.428;2023-05-16T16:46:20;16.40;73.60
4435;DHT22;46552;52.150;8.428;2023-05-16T16:48:47;16.40;73.70
4435;DHT22;46552;52.150;8.428;2023-05-16T16:51:18;16.40;73.90
4435;DHT22;46552;52.150;8.428;2023-05-16T16:53:45;16.30;74.40
4435;DHT22;46552;52.150;8.428;2023-05-16T16:56:13;16.30;74.80
4435;DHT22;46552;52.150;8.428;2023-05-16T16:58:40;16.10;75.10
4435;DHT22;46552;52.150;8.428;2023-05-16T17:01:08;16.00;75.70
4435;DHT22;46552;52.150;8.428;2023-05-16T17:03:37;15.90;76.30
4435;DHT22;46552;52.150;8.428;2023-05-16T17:06:04;15.80;76.80
4435;DHT22;46552;52.150;8.428;2023-05-16T17:08:33;15.70;77.20
4435;DHT22;46552;52.150;8.428;2023-05-16T17:11:01;15.60;77.40
4435;DHT22;46552;52.150;8.428;2023-05-16T17:13:29;15.50;77.40
4435;DHT22;46552;52.150;8.428;2023-05-16T17:15:58;15.50;77.70
4435;DHT22;46552;52.150;8.428;2023-05-16T17:18:26;15.40;77.90
4435;DHT22;46552;52.150;8.428;2023-05-16T17:20:53;15.30;78.20
4435;DHT22;46552;52.150;8.428;2023-05-16T17:23:20;15.20;77.50
4435;DHT22;46552;52.150;8.428;2023-05-16T17:25:49;15.10;78.20
4435;DHT22;46552;52.150;8.428;2023-05-16T17:28:16;15.10;78.40
4435;DHT22;46552;52.150;8.428;2023-05-16T17:30:44;15.00;78.80
4435;DHT22;46552;52.150;8.428;2023-05-16T17:33:11;14.90;79.10
4435;DHT22;46552;52.150;8.428;2023-05-16T17:35:39;14.90;79.50
4435;DHT22;46552;52.150;8.428;2023-05-16T17:38:06;14.90;79.80
4435;DHT22;46552;52.150;8.428;2023-05-16T17:40:34;14.90;80.10
4435;DHT22;46552;52.150;8.428;2023-05-16T17:43:04;14.90;80.40
4435;DHT22;46552;52.150;8.428;2023-05-16T17:45:31;14.90;80.60
4435;DHT22;46552;52.150;8.428;2023-05-16T17:47:59;14.90;81.00
4435;DHT22;46552;52.150;8.428;2023-05-16T17:50:28;14.80;80.90
4435;DHT22;46552;52.150;8.428;2023-05-16T17:52:56;14.80;81.50
4435;DHT22;46552;52.150;8.428;2023-05-16T17:55:25;14.90;81.90
4435;DHT22;46552;52.150;8.428;2023-05-16T17:57:52;14.80;82.20
4435;DHT22;46552;52.150;8.428;2023-05-16T18:00:21;14.80;82.60
4435;DHT22;46552;52.150;8.428;2023-05-16T18:02:49;14.80;82.80
4435;DHT22;46552;52.150;8.428;2023-05-16T18:05:17;14.80;83.10
4435;DHT22;46552;52.150;8.428;2023-05-16T18:07:44;14.70;83.00
4435;DHT22;46552;52.150;8.428;2023-05-16T18:10:12;14.60;82.70
4435;DHT22;46552;52.150;8.428;2023-05-16T18:12:39;14.60;83.60
4435;DHT22;46552;52.150;8.428;2023-05-16T18:15:07;14.60;83.80
4435;DHT22;46552;52.150;8.428;2023-05-16T18:17:37;14.50;83.00
4435;DHT22;46552;52.150;8.428;2023-05-16T18:20:05;14.50;83.60
4435;DHT22;46552;52.150;8.428;2023-05-16T18:22:36;14.40;83.50
4435;DHT22;46552;52.150;8.428;2023-05-16T18:27:30;14.30;83.60
4435;DHT22;46552;52.150;8.428;2023-05-16T18:29:59;14.30;84.40
4435;DHT22;46552;52.150;8.428;2023-05-16T18:32:26;14.20;84.60
4435;DHT22;46552;52.150;8.428;2023-05-16T18:34:55;15.00;85.50
4435;DHT22;46552;52.150;8.428;2023-05-16T18:37:22;14.10;85.00
4435;DHT22;46552;52.150;8.428;2023-05-16T18:39:49;14.10;85.20
4435;DHT22;46552;52.150;8.428;2023-05-16T18:42:16;14.10;85.60
4435;DHT22;46552;52.150;8.428;2023-05-16T18:44:45;14.10;85.90
4435;DHT22;46552;52.150;8.428;2023-05-16T18:47:12;14.10;86.30
4435;DHT22;46552;52.150;8.428;2023-05-16T18:49:40;14.00;86.80
4435;DHT22;46552;52.150;8.428;2023-05-16T18:52:10;14.00;86.90
4435;DHT22;46552;52.150;8.428;2023-05-16T18:54:38;13.80;87.50
4435;DHT22;46552;52.150;8.428;2023-05-16T18:57:05;13.90;87.50
4435;DHT22;46552;52.150;8.428;2023-05-16T18:59:33;13.80;87.60
4435;DHT22;46552;52.150;8.428;2023-05-16T19:02:01;13.80;88.00
4435;DHT22;46552;52.150;8.428;2023-05-16T19:04:29;13.80;87.90
4435;DHT22;46552;52.150;8.428;2023-05-16T19:06:56;13.70;88.30
4435;DHT22;46552;52.150;8.428;2023-05-16T19:09:24;13.70;88.30
4435;DHT22;46552;52.150;8.428;2023-05-16T19:11:52;13.60;88.50
4435;DHT22;46552;52.150;8.428;2023-05-16T19:14:20;13.60;88.70
4435;DHT22;46552;52.150;8.428;2023-05-16T19:16:47;13.50;88.80
4435;DHT22;46552;52.150;8.428;2023-05-16T19:19:15;13.50;88.90
4435;DHT22;46552;52.150;8.428;2023-05-16T19:21:42;13.40;89.20
4435;DHT22;46552;52.150;8.428;2023-05-16T19:24:09;13.30;89.30
4435;DHT22;46552;52.150;8.428;2023-05-16T19:26:38;13.40;89.70
4435;DHT22;46552;52.150;8.428;2023-05-16T19:29:05;13.30;90.20
4435;DHT22;46552;52.150;8.428;2023-05-16T19:31:33;13.30;90.10
4435;DHT22;46552;52.150;8.428;2023-05-16T19:34:00;13.30;90.20
4435;DHT22;46552;52.150;8.428;2023-05-16T19:36:27;13.20;90.30
4435;DHT22;46552;52.150;8.428;2023-05-16T19:38:54;13.20;90.50
4435;DHT22;46552;52.150;8.428;2023-05-16T19:41:23;13.20;90.60
4435;DHT22;46552;52.150;8.428;2023-05-16T19:43:52;13.20;90.40
4435;DHT22;46552;52.150;8.428;2023-05-16T19:46:19;13.10;90.60
4435;DHT22;46552;52.150;8.428;2023-05-16T19:48:47;13.10;91.20
4435;DHT22;46552;52.150;8.428;2023-05-16T19:51:14;13.10;91.10
4435;DHT22;46552;52.150;8.428;2023-05-16T19:53:41;13.10;91.20
4435;DHT22;46552;52.150;8.428;2023-05-16T19:56:10;13.00;91.20
4435;DHT22;46552;52.150;8.428;2023-05-16T19:58:37;13.10;91.40
4435;DHT22;46552;52.150;8.428;2023-05-16T20:01:09;13.10;91.50
4435;DHT22;46552;52.150;8.428;2023-05-16T20:03:36;13.00;91.60
4435;DHT22;46552;52.150;8.428;2023-05-16T20:06:04;13.00;91.80
4435;DHT22;46552;52.150;8.428;2023-05-16T20:08:32;12.90;91.70
4435;DHT22;46552;52.150;8.428;2023-05-16T20:11:00;12.90;92.10
4435;DHT22;46552;52.150;8.428;2023-05-16T20:13:26;12.90;92.10
4435;DHT22;46552;52.150;8.428;2023-05-16T20:15:55;12.90;92.30
4435;DHT22;46552;52.150;8.428;2023-05-16T20:18:24;12.90;92.40
4435;DHT22;46552;52.150;8.428;2023-05-16T20:20:52;12.90;92.50
4435;DHT22;46552;52.150;8.428;2023-05-16T20:23:18;12.90;92.60
4435;DHT22;46552;52.150;8.428;2023-05-16T20:25:46;12.70;92.50
4435;DHT22;46552;52.150;8.428;2023-05-16T20:28:13;12.80;92.70
4435;DHT22;46552;52.150;8.428;2023-05-16T20:30:40;12.80;92.80
4435;DHT22;46552;52.150;8.428;2023-05-16T20:33:07;12.80;92.90
4435;DHT22;46552;52.150;8.428;2023-05-16T20:35:36;12.80;93.00
4435;DHT22;46552;52.150;8.428;2023-05-16T20:38:03;12.80;93.20
4435;DHT22;46552;52.150;8.428;2023-05-16T20:40:31;12.80;93.20
4435;DHT22;46552;52.150;8.428;2023-05-16T20:42:58;12.80;93.70
4435;DHT22;46552;52.150;8.428;2023-05-16T20:45:25;12.70;93.50
4435;DHT22;46552;52.150;8.428;2023-05-16T20:47:54;12.60;93.70
4435;DHT22;46552;52.150;8.428;2023-05-16T20:50:21;12.70;93.90
4435;DHT22;46552;52.150;8.428;2023-05-16T20:52:50;12.60;94.00
4435;DHT22;46552;52.150;8.428;2023-05-16T20:55:17;12.60;94.20
4435;DHT22;46552;52.150;8.428;2023-05-16T20:57:44;12.50;94.40
4435;DHT22;46552;52.150;8.428;2023-05-16T21:00:11;12.50;94.60
4435;DHT22;46552;52.150;8.428;2023-05-16T21:02:39;12.50;94.80
4435;DHT22;46552;52.150;8.428;2023-05-16T21:05:07;12.40;95.30
4435;DHT22;46552;52.150;8.428;2023-05-16T21:07:34;12.20;95.30
4435;DHT22;46552;52.150;8.428;2023-05-16T21:10:03;12.30;95.40
4435;DHT22;46552;52.150;8.428;2023-05-16T21:12:31;12.10;95.80
4435;DHT22;46552;52.150;8.428;2023-05-16T21:14:59;12.10;95.90
4435;DHT22;46552;52.150;8.428;2023-05-16T21:17:27;12.00;96.20
4435;DHT22;46552;52.150;8.428;2023-05-16T21:19:54;12.00;96.40
4435;DHT22;46552;52.150;8.428;2023-05-16T21:22:21;11.90;97.00
4435;DHT22;46552;52.150;8.428;2023-05-16T21:24:49;11.90;97.20
4435;DHT22;46552;52.150;8.428;2023-05-16T21:27:17;11.80;97.10
4435;DHT22;46552;52.150;8.428;2023-05-16T21:32:12;11.70;97.20
4435;DHT22;46552;52.150;8.428;2023-05-16T21:34:40;11.50;97.70
4435;DHT22;46552;52.150;8.428;2023-05-16T21:37:07;11.60;97.80
4435;DHT22;46552;52.150;8.428;2023-05-16T21:39:36;11.60;97.90
4435;DHT22;46552;52.150;8.428;2023-05-16T21:42:04;11.50;98.20
4435;DHT22;46552;52.150;8.428;2023-05-16T21:44:33;11.50;98.30
4435;DHT22;46552;52.150;8.428;2023-05-16T21:47:00;11.50;98.50
4435;DHT22;46552;52.150;8.428;2023-05-16T21:49:28;11.50;98.80
4435;DHT22;46552;52.150;8.428;2023-05-16T21:51:55;11.50;98.50
4435;DHT22;46552;52.150;8.428;2023-05-16T21:54:22;11.40;99.40
4435;DHT22;46552;52.150;8.428;2023-05-16T21:56:50;11.40;99.10
4435;DHT22;46552;52.150;8.428;2023-05-16T22:01:45;11.20;99.30
4435;DHT22;46552;52.150;8.428;2023-05-16T22:04:13;11.20;99.70
4435;DHT22;46552;52.150;8.428;2023-05-16T22:06:40;11.20;99.90
4435;DHT22;46552;52.150;8.428;2023-05-16T22:09:07;11.10;99.90
4435;DHT22;46552;52.150;8.428;2023-05-16T22:11:36;11.10;99.90
4435;DHT22;46552;52.150;8.428;2023-05-16T22:14:03;11.10;99.90
4435;DHT22;46552;52.150;8.428;2023-05-16T22:16:30;11.10;99.90
4435;DHT22;46552;52.150;8.428;2023-05-16T22:18:59;11.10;99.90
4435;DHT22;46552;52.150;8.428;2023-05-16T22:21:26;11.00;99.90
4435;DHT22;46552;52.150;8.428;2023-05-16T22:23:53;11.00;99.90
4435;DHT22;46552;52.150;8.428;2023-05-16T22:26:20;11.00;99.90